Time;durP1;ratioP1;P1;durP2;ratioP2;P2;SDS_P1;SDS_P2;PMS_P1;PMS_P2;Temp;Humidity;BMP_temperature;BMP_pressure;BME280_temperature;BME280_humidity;BME280_pressure;Samples;Min_cycle;Max_cycle;Signal;HPM_P1;HPM_P2
2022/10/09 00:00:04;;;;;;;14.07;8.05;;;;;;;;;;5035697;28;20049;-80
2022/10/09 00:02:31;;;;;;;15.38;8.23;;;;;;;;;;5037192;28;20532;-79
2022/10/09 00:04:58;;;;;;;19.38;7.53;;;;;;;;;;5036858;28;20473;-80
2022/10/09 00:07:24;;;;;;;23.70;7.90;;;;;;;;;;5054831;28;20056;-80
2022/10/09 00:09:50;;;;;;;16.23;8.05;;;;;;;;;;5055013;28;20067;-82
2022/10/09 00:12:17;;;;;;;16.50;8.07;;;;;;;;;;5057160;28;20053;-81
2022/10/09 00:14:43;;;;;;;16.48;8.32;;;;;;;;;;5057162;28;20063;-81
2022/10/09 00:17:10;;;;;;;16.85;7.75;;;;;;;;;;5039509;28;20508;-81
2022/10/09 00:19:36;;;;;;;16.00;8.07;;;;;;;;;;5058263;28;20547;-80
2022/10/09 00:22:03;;;;;;;13.82;7.53;;;;;;;;;;5054919;28;20054;-81
2022/10/09 00:24:29;;;;;;;16.48;7.70;;;;;;;;;;5015970;28;20117;-80
2022/10/09 00:26:55;;;;;;;14.02;7.90;;;;;;;;;;5022073;28;20053;-81
2022/10/09 00:29:22;;;;;;;15.30;7.78;;;;;;;;;;5013946;28;20049;-78
2022/10/09 00:31:49;;;;;;;16.58;7.93;;;;;;;;;;5013749;28;20049;-82
2022/10/09 00:34:17;;;;;;;13.65;7.53;;;;;;;;;;5013074;28;20045;-81
2022/10/09 00:36:45;;;;;;;16.85;7.90;;;;;;;;;;5012705;28;20081;-81
2022/10/09 00:39:11;;;;;;;16.75;7.30;;;;;;;;;;5012351;28;20050;-79
2022/10/09 00:41:39;;;;;;;15.20;7.55;;;;;;;;;;5013188;28;20100;-81
2022/10/09 00:44:25;;;;;;;17.00;7.82;;;;;;;;;;4995310;28;20066;-81
2022/10/09 00:46:52;;;;;;;13.85;7.65;;;;;;;;;;5012373;28;20050;-80
2022/10/09 00:49:29;;;;;;;15.48;7.47;;;;;;;;;;5012985;28;20050;-80
2022/10/09 00:51:57;;;;;;;13.20;7.18;;;;;;;;;;5012535;28;20046;-80
2022/10/09 00:54:26;;;;;;;15.55;7.50;;;;;;;;;;5012151;28;20053;-81
2022/10/09 00:56:53;;;;;;;16.98;7.00;;;;;;;;;;5011997;28;20042;-80
2022/10/09 00:59:20;;;;;;;15.88;7.32;;;;;;;;;;5023592;28;20052;-78
2022/10/09 01:01:46;;;;;;;16.65;7.40;;;;;;;;;;5051732;28;20064;-80
2022/10/09 01:04:13;;;;;;;14.05;6.78;;;;;;;;;;5039223;28;20049;-80
2022/10/09 01:06:58;;;;;;;13.23;6.57;;;;;;;;;;5060106;28;20124;-78
2022/10/09 01:09:38;;;;;;;16.63;7.05;;;;;;;;;;5055869;28;20753;-81
2022/10/09 01:12:23;;;;;;;15.02;6.47;;;;;;;;;;5060454;28;20072;-81
2022/10/09 01:15:02;;;;;;;10.77;6.03;;;;;;;;;;5061689;28;20045;-79
2022/10/09 01:17:55;;;;;;;10.63;5.65;;;;;;;;;;5062310;28;20049;-80
2022/10/09 01:20:22;;;;;;;12.45;5.97;;;;;;;;;;5025418;28;20076;-80
2022/10/09 01:23:11;;;;;;;15.07;6.50;;;;;;;;;;5062912;28;20131;-80
2022/10/09 01:25:47;;;;;;;12.38;5.95;;;;;;;;;;5063886;28;20072;-80
2022/10/09 01:28:14;;;;;;;10.52;6.10;;;;;;;;;;5060460;28;20048;-80
2022/10/09 01:30:41;;;;;;;15.50;5.95;;;;;;;;;;5035743;28;20166;-79
2022/10/09 01:33:08;;;;;;;10.88;6.13;;;;;;;;;;5051891;28;20049;-80
2022/10/09 01:35:35;;;;;;;10.48;6.20;;;;;;;;;;5052029;28;20059;-80
2022/10/09 01:38:03;;;;;;;12.80;6.53;;;;;;;;;;5051576;28;20049;-80
2022/10/09 01:40:29;;;;;;;9.30;5.68;;;;;;;;;;5050810;28;20063;-79
2022/10/09 01:42:57;;;;;;;13.73;6.68;;;;;;;;;;5050449;28;20049;-81
2022/10/09 01:45:23;;;;;;;11.55;6.40;;;;;;;;;;5033379;28;20095;-81
2022/10/09 01:47:50;;;;;;;15.35;7.18;;;;;;;;;;5050202;28;20059;-81
2022/10/09 01:50:27;;;;;;;14.32;6.57;;;;;;;;;;5051070;28;20125;-80
2022/10/09 01:53:00;;;;;;;12.13;6.40;;;;;;;;;;5051437;28;20099;-80
2022/10/09 01:55:45;;;;;;;12.20;6.38;;;;;;;;;;5051523;28;20053;-80
2022/10/09 01:58:16;;;;;;;11.02;6.35;;;;;;;;;;5050825;28;20052;-81
2022/10/09 02:00:46;;;;;;;13.10;6.13;;;;;;;;;;5051893;28;20075;-79
2022/10/09 02:03:14;;;;;;;14.10;6.55;;;;;;;;;;5051837;28;20033;-81
2022/10/09 02:05:42;;;;;;;14.27;6.93;;;;;;;;;;5052668;28;20112;-82
2022/10/09 02:08:11;;;;;;;13.40;6.25;;;;;;;;;;5038091;28;20497;-79
2022/10/09 02:10:39;;;;;;;18.23;6.72;;;;;;;;;;5030584;28;20060;-80
2022/10/09 02:13:05;;;;;;;13.23;6.57;;;;;;;;;;5031471;28;20707;-79
2022/10/09 02:15:50;;;;;;;12.75;5.90;;;;;;;;;;5030964;28;20544;-80
2022/10/09 02:18:20;;;;;;;11.40;4.70;;;;;;;;;;5027505;28;20056;-80
2022/10/09 02:20:49;;;;;;;18.27;6.10;;;;;;;;;;5031308;28;20053;-80
2022/10/09 02:23:17;;;;;;;11.00;6.00;;;;;;;;;;5013547;28;20041;-80
2022/10/09 02:25:43;;;;;;;14.85;6.90;;;;;;;;;;5031132;28;20060;-80
2022/10/09 02:28:10;;;;;;;11.35;6.47;;;;;;;;;;5031252;28;20136;-81
2022/10/09 02:30:55;;;;;;;14.27;6.32;;;;;;;;;;5032134;28;20041;-79
2022/10/09 02:33:31;;;;;;;14.13;6.23;;;;;;;;;;5014590;28;20092;-80
2022/10/09 02:35:58;;;;;;;12.18;6.20;;;;;;;;;;5035064;28;20292;-78
2022/10/09 02:38:24;;;;;;;12.27;6.78;;;;;;;;;;5033668;28;20064;-80
2022/10/09 02:40:51;;;;;;;16.15;6.63;;;;;;;;;;5035027;28;20223;-80
2022/10/09 02:43:17;;;;;;;11.02;6.40;;;;;;;;;;5016603;28;20076;-79
2022/10/09 02:45:43;;;;;;;14.00;7.50;;;;;;;;;;5034090;28;20060;-80
2022/10/09 02:48:10;;;;;;;13.23;7.20;;;;;;;;;;5033248;28;20071;-80
2022/10/09 02:50:36;;;;;;;15.05;7.38;;;;;;;;;;5033759;28;20132;-80
2022/10/09 02:53:02;;;;;;;14.23;6.88;;;;;;;;;;5016023;28;20060;-80
2022/10/09 02:55:29;;;;;;;13.77;6.13;;;;;;;;;;5033431;28;20056;-80
2022/10/09 02:57:55;;;;;;;16.35;7.03;;;;;;;;;;5036658;28;20515;-80
2022/10/09 03:00:22;;;;;;;17.08;6.03;;;;;;;;;;5053509;28;20120;-80
2022/10/09 03:02:48;;;;;;;15.02;6.57;;;;;;;;;;5054506;28;20524;-80
2022/10/09 03:05:15;;;;;;;15.30;7.40;;;;;;;;;;5054548;28;20497;-80
2022/10/09 03:07:49;;;;;;;14.38;6.30;;;;;;;;;;5054152;28;20056;-80
2022/10/09 03:10:16;;;;;;;14.85;6.85;;;;;;;;;;5054187;28;20056;-78
2022/10/09 03:12:42;;;;;;;13.75;6.10;;;;;;;;;;5053757;28;20060;-79
2022/10/09 03:15:09;;;;;;;14.02;6.93;;;;;;;;;;5053577;28;20410;-80
2022/10/09 03:17:35;;;;;;;13.85;6.93;;;;;;;;;;5054986;28;20446;-79
2022/10/09 03:20:02;;;;;;;13.43;6.63;;;;;;;;;;5054383;28;20049;-80
2022/10/09 03:22:28;;;;;;;18.98;6.93;;;;;;;;;;5052973;28;20045;-79
2022/10/09 03:24:54;;;;;;;15.30;6.63;;;;;;;;;;5053574;28;20049;-80
2022/10/09 03:27:21;;;;;;;16.77;6.43;;;;;;;;;;5052565;28;20064;-79
2022/10/09 03:29:47;;;;;;;14.77;6.82;;;;;;;;;;5035494;28;20105;-79
2022/10/09 03:32:14;;;;;;;13.38;6.85;;;;;;;;;;5053444;28;20049;-79
2022/10/09 03:34:40;;;;;;;13.95;6.88;;;;;;;;;;5035419;28;20052;-80
2022/10/09 03:37:06;;;;;;;15.40;6.38;;;;;;;;;;5036046;28;20509;-80
2022/10/09 03:39:33;;;;;;;13.40;6.65;;;;;;;;;;5053979;28;20236;-80
2022/10/09 03:41:59;;;;;;;14.43;6.22;;;;;;;;;;5037392;28;20053;-80
2022/10/09 03:44:26;;;;;;;14.15;6.30;;;;;;;;;;5053525;28;20057;-81
2022/10/09 03:46:52;;;;;;;11.23;5.53;;;;;;;;;;5036599;28;20159;-81
2022/10/09 03:49:19;;;;;;;8.43;5.35;;;;;;;;;;5071132;28;20100;-81
2022/10/09 03:51:45;;;;;;;13.95;5.82;;;;;;;;;;5073731;28;20420;-81
2022/10/09 03:54:11;;;;;;;11.27;5.90;;;;;;;;;;5065371;28;20059;-79
2022/10/09 03:56:38;;;;;;;13.23;5.65;;;;;;;;;;5053294;28;20060;-78
2022/10/09 03:59:06;;;;;;;13.35;5.95;;;;;;;;;;5023308;28;20053;-80
2022/10/09 04:01:32;;;;;;;16.70;6.20;;;;;;;;;;5032934;28;20136;-80
2022/10/09 04:03:59;;;;;;;14.35;7.25;;;;;;;;;;5033011;28;20075;-80
2022/10/09 04:06:25;;;;;;;11.95;6.32;;;;;;;;;;5033605;28;20046;-81
2022/10/09 04:08:52;;;;;;;15.57;6.50;;;;;;;;;;5034943;28;20582;-80
2022/10/09 04:11:18;;;;;;;11.48;5.75;;;;;;;;;;5034409;28;20068;-81
2022/10/09 04:13:45;;;;;;;12.07;6.60;;;;;;;;;;5032361;28;20050;-81
2022/10/09 04:16:11;;;;;;;13.45;6.07;;;;;;;;;;5031807;28;20113;-80
2022/10/09 04:18:39;;;;;;;12.38;6.13;;;;;;;;;;5031134;28;20050;-79
2022/10/09 04:21:05;;;;;;;33.22;7.47;;;;;;;;;;5031571;28;20512;-80
2022/10/09 04:23:31;;;;;;;12.00;5.60;;;;;;;;;;5031962;28;20176;-80
2022/10/09 04:25:58;;;;;;;17.92;6.15;;;;;;;;;;5031424;28;20048;-80
2022/10/09 04:28:26;;;;;;;16.75;6.32;;;;;;;;;;5030879;28;20621;-79
2022/10/09 04:30:52;;;;;;;11.05;5.72;;;;;;;;;;5031365;28;20045;-79
2022/10/09 04:33:18;;;;;;;11.48;5.93;;;;;;;;;;5032622;28;20069;-80
2022/10/09 04:35:45;;;;;;;16.88;6.03;;;;;;;;;;5031258;28;20466;-78
2022/10/09 04:38:13;;;;;;;11.43;5.90;;;;;;;;;;5031616;28;20468;-79
2022/10/09 04:40:40;;;;;;;16.67;5.70;;;;;;;;;;5013561;28;20153;-79
2022/10/09 04:43:06;;;;;;;13.77;6.30;;;;;;;;;;5031472;28;20064;-79
2022/10/09 04:45:32;;;;;;;10.63;5.70;;;;;;;;;;5035062;28;20049;-80
2022/10/09 04:47:59;;;;;;;14.20;6.05;;;;;;;;;;5058258;28;20108;-79
2022/10/09 04:50:25;;;;;;;14.98;5.55;;;;;;;;;;5053449;28;20067;-79
2022/10/09 04:52:52;;;;;;;13.35;5.60;;;;;;;;;;5050682;28;20041;-80
2022/10/09 04:55:18;;;;;;;13.50;6.07;;;;;;;;;;5051019;28;20131;-79
2022/10/09 04:57:44;;;;;;;10.13;5.93;;;;;;;;;;5048748;28;20056;-79
2022/10/09 05:00:11;;;;;;;12.52;5.55;;;;;;;;;;5031138;28;20125;-79
2022/10/09 05:02:38;;;;;;;10.80;6.05;;;;;;;;;;5030474;28;20060;-80
2022/10/09 05:05:04;;;;;;;22.23;6.88;;;;;;;;;;5030619;28;20471;-80
2022/10/09 05:07:30;;;;;;;13.20;6.05;;;;;;;;;;5030716;28;20049;-79
2022/10/09 05:09:57;;;;;;;18.55;6.18;;;;;;;;;;5032382;28;20382;-80
2022/10/09 05:12:23;;;;;;;16.83;6.45;;;;;;;;;;5030778;28;20046;-80
2022/10/09 05:14:50;;;;;;;15.45;6.38;;;;;;;;;;5030407;28;20162;-79
2022/10/09 05:17:16;;;;;;;13.32;6.35;;;;;;;;;;5030059;28;20493;-80
2022/10/09 05:19:48;;;;;;;16.35;6.20;;;;;;;;;;5014562;28;20464;-80
2022/10/09 05:22:14;;;;;;;12.18;6.07;;;;;;;;;;5031604;28;20059;-80
2022/10/09 05:24:41;;;;;;;13.25;6.22;;;;;;;;;;5031750;28;20052;-80
2022/10/09 05:27:07;;;;;;;20.40;7.22;;;;;;;;;;5030805;28;20083;-80
2022/10/09 05:29:34;;;;;;;14.90;6.20;;;;;;;;;;5013370;28;20045;-79
2022/10/09 05:32:00;;;;;;;13.68;6.50;;;;;;;;;;5030905;28;20057;-80
2022/10/09 05:34:26;;;;;;;12.73;6.30;;;;;;;;;;5031026;28;20049;-80
2022/10/09 05:36:53;;;;;;;14.95;6.45;;;;;;;;;;5031045;28;20053;-78
2022/10/09 05:39:19;;;;;;;18.13;6.85;;;;;;;;;;5031337;28;20045;-78
2022/10/09 05:41:45;;;;;;;17.85;6.18;;;;;;;;;;5031085;28;20057;-80
2022/10/09 05:44:12;;;;;;;12.90;6.40;;;;;;;;;;5031337;28;20045;-79
2022/10/09 05:46:38;;;;;;;12.98;6.43;;;;;;;;;;5011384;28;20490;-76
2022/10/09 05:49:05;;;;;;;12.77;6.18;;;;;;;;;;5025346;28;20045;-78
2022/10/09 05:51:32;;;;;;;12.05;6.30;;;;;;;;;;5013231;28;20060;-79
2022/10/09 05:54:02;;;;;;;16.33;6.00;;;;;;;;;;5011510;28;20054;-80
2022/10/09 05:56:29;;;;;;;13.82;6.47;;;;;;;;;;4994348;28;20065;-80
2022/10/09 05:59:06;;;;;;;15.23;6.45;;;;;;;;;;5036199;28;20044;-79
2022/10/09 06:01:34;;;;;;;11.65;5.95;;;;;;;;;;5053075;28;20063;-78
2022/10/09 06:04:01;;;;;;;10.93;6.05;;;;;;;;;;5052167;28;20091;-78
2022/10/09 06:06:29;;;;;;;15.40;6.88;;;;;;;;;;5052312;28;20147;-78
2022/10/09 06:08:56;;;;;;;14.15;6.47;;;;;;;;;;5048515;28;20055;-79
2022/10/09 06:11:27;;;;;;;14.55;6.90;;;;;;;;;;5012719;28;20140;-80
2022/10/09 06:13:54;;;;;;;13.48;7.10;;;;;;;;;;5016477;28;20456;-78
2022/10/09 06:16:22;;;;;;;15.82;7.28;;;;;;;;;;5016283;28;20050;-79
2022/10/09 06:18:49;;;;;;;22.65;7.43;;;;;;;;;;5016617;28;20057;-79
2022/10/09 06:21:16;;;;;;;14.38;6.63;;;;;;;;;;5035799;28;20049;-79
2022/10/09 06:23:42;;;;;;;16.33;7.10;;;;;;;;;;5033229;28;20131;-79
2022/10/09 06:26:11;;;;;;;21.25;6.45;;;;;;;;;;5034912;28;20391;-79
2022/10/09 06:28:37;;;;;;;16.25;6.82;;;;;;;;;;5034324;28;20055;-81
2022/10/09 06:31:08;;;;;;;29.65;11.68;;;;;;;;;;5035382;28;20482;-79
2022/10/09 06:33:35;;;;;;;24.58;11.25;;;;;;;;;;5036238;28;20456;-79
2022/10/09 06:36:06;;;;;;;26.05;12.13;;;;;;;;;;5034894;28;20546;-81
2022/10/09 06:38:36;;;;;;;25.10;11.63;;;;;;;;;;5034397;28;20532;-79
2022/10/09 06:41:03;;;;;;;32.13;12.30;;;;;;;;;;5034338;28;20045;-82
2022/10/09 06:43:29;;;;;;;23.45;11.45;;;;;;;;;;5034651;28;20081;-81
2022/10/09 06:45:58;;;;;;;24.98;12.13;;;;;;;;;;5033871;28;20060;-81
2022/10/09 06:48:27;;;;;;;26.52;11.57;;;;;;;;;;5034655;28;20045;-81
2022/10/09 06:50:53;;;;;;;27.95;12.48;;;;;;;;;;5043296;28;20049;-80
2022/10/09 06:53:19;;;;;;;25.08;13.00;;;;;;;;;;5046675;28;20128;-81
2022/10/09 06:55:54;;;;;;;22.88;11.85;;;;;;;;;;5042180;28;20049;-81
2022/10/09 06:58:20;;;;;;;21.23;10.90;;;;;;;;;;5047520;28;20136;-81
2022/10/09 07:00:46;;;;;;;22.38;11.55;;;;;;;;;;5048243;28;20055;-79
2022/10/09 07:03:14;;;;;;;27.52;12.60;;;;;;;;;;5063489;28;20048;-79
2022/10/09 07:05:40;;;;;;;24.10;12.43;;;;;;;;;;5042349;28;20060;-81
2022/10/09 07:08:07;;;;;;;24.10;12.30;;;;;;;;;;5043494;28;20058;-80
2022/10/09 07:10:35;;;;;;;32.20;13.75;;;;;;;;;;5044732;28;20053;-80
2022/10/09 07:13:02;;;;;;;23.92;12.95;;;;;;;;;;5046308;28;20117;-81
2022/10/09 07:15:28;;;;;;;27.10;13.73;;;;;;;;;;5041315;28;20113;-79
2022/10/09 07:17:55;;;;;;;27.73;14.13;;;;;;;;;;5055224;28;20045;-81
2022/10/09 07:20:21;;;;;;;23.98;12.73;;;;;;;;;;5045853;28;20090;-81
2022/10/09 07:22:48;;;;;;;26.42;13.02;;;;;;;;;;5016131;28;20078;-79
2022/10/09 07:25:15;;;;;;;30.27;12.48;;;;;;;;;;5028267;28;20046;-80
2022/10/09 07:27:41;;;;;;;26.35;12.05;;;;;;;;;;5037786;28;20671;-77
2022/10/09 07:30:08;;;;;;;29.63;12.98;;;;;;;;;;5029946;28;20049;-82
2022/10/09 07:32:34;;;;;;;29.90;15.00;;;;;;;;;;5010532;28;20055;-80
2022/10/09 07:35:00;;;;;;;28.52;13.32;;;;;;;;;;5028895;28;20060;-81
2022/10/09 07:37:27;;;;;;;27.65;13.23;;;;;;;;;;5027564;28;20061;-81
2022/10/09 07:39:53;;;;;;;24.85;12.45;;;;;;;;;;5028639;28;20069;-78
2022/10/09 07:42:20;;;;;;;21.55;10.63;;;;;;;;;;5026693;28;20053;-77
2022/10/09 07:44:46;;;;;;;21.48;10.10;;;;;;;;;;5025316;28;20092;-78
2022/10/09 07:47:12;;;;;;;17.00;8.40;;;;;;;;;;5028069;28;20049;-81
2022/10/09 07:49:39;;;;;;;17.20;7.82;;;;;;;;;;5028776;28;20115;-81
2022/10/09 07:52:05;;;;;;;32.75;14.35;;;;;;;;;;5028336;28;20627;-81
2022/10/09 07:54:31;;;;;;;22.63;11.15;;;;;;;;;;5028641;28;20060;-81
2022/10/09 07:56:58;;;;;;;27.27;10.63;;;;;;;;;;5026709;28;20053;-80
2022/10/09 07:59:24;;;;;;;18.42;9.27;;;;;;;;;;5022908;28;20160;-79
2022/10/09 08:01:50;;;;;;;19.55;6.57;;;;;;;;;;5027721;28;20060;-80
2022/10/09 08:04:17;;;;;;;25.10;9.80;;;;;;;;;;5025734;28;20593;-82
2022/10/09 08:06:43;;;;;;;18.13;8.77;;;;;;;;;;5027409;28;20055;-81
2022/10/09 08:09:10;;;;;;;16.40;7.05;;;;;;;;;;5027196;28;20045;-81
2022/10/09 08:11:39;;;;;;;14.73;6.75;;;;;;;;;;5028173;28;20095;-80
2022/10/09 08:14:06;;;;;;;16.77;6.60;;;;;;;;;;5010007;28;20140;-80
2022/10/09 08:16:32;;;;;;;21.95;8.55;;;;;;;;;;5026200;28;20596;-79
2022/10/09 08:18:59;;;;;;;14.82;6.22;;;;;;;;;;5026139;28;20057;-80
2022/10/09 08:21:27;;;;;;;18.42;5.85;;;;;;;;;;5027318;28;20341;-80
2022/10/09 08:23:54;;;;;;;13.75;6.20;;;;;;;;;;5026920;28;20140;-81
2022/10/09 08:26:21;;;;;;;15.40;6.13;;;;;;;;;;5027681;28;20041;-81
2022/10/09 08:28:48;;;;;;;15.80;5.93;;;;;;;;;;5025467;28;20063;-80
2022/10/09 08:31:15;;;;;;;12.68;6.00;;;;;;;;;;5026177;28;20462;-80
2022/10/09 08:33:42;;;;;;;11.70;4.18;;;;;;;;;;5025465;28;20100;-81
2022/10/09 08:36:10;;;;;;;16.50;5.05;;;;;;;;;;5027789;28;20057;-81
2022/10/09 08:38:37;;;;;;;12.48;4.38;;;;;;;;;;5009149;28;20053;-80
2022/10/09 08:41:13;;;;;;;12.35;4.15;;;;;;;;;;5027830;28;20111;-81
2022/10/09 08:43:41;;;;;;;11.63;3.63;;;;;;;;;;5027703;28;20073;-80
2022/10/09 08:46:30;;;;;;;15.50;3.53;;;;;;;;;;5024022;28;20045;-80
2022/10/09 08:48:57;;;;;;;11.30;3.38;;;;;;;;;;5026944;28;20152;-80
2022/10/09 08:51:28;;;;;;;8.77;2.65;;;;;;;;;;5027543;28;20144;-81
2022/10/09 08:54:00;;;;;;;8.63;2.90;;;;;;;;;;5026979;28;20053;-80
2022/10/09 08:56:28;;;;;;;7.63;2.60;;;;;;;;;;5028024;28;20041;-82
2022/10/09 08:58:54;;;;;;;9.35;2.50;;;;;;;;;;5028845;28;20056;-81
2022/10/09 09:01:24;;;;;;;13.68;3.28;;;;;;;;;;5027649;28;20089;-81
2022/10/09 09:04:00;;;;;;;11.95;2.42;;;;;;;;;;5026234;28;20045;-80
2022/10/09 09:06:30;;;;;;;7.78;2.30;;;;;;;;;;5026513;28;20516;-81
2022/10/09 09:09:17;;;;;;;7.78;1.80;;;;;;;;;;5026318;28;20849;-80
2022/10/09 09:11:46;;;;;;;8.02;2.03;;;;;;;;;;5025441;28;20062;-79
2022/10/09 09:14:31;;;;;;;13.77;1.80;;;;;;;;;;5026556;28;20140;-81
2022/10/09 09:17:05;;;;;;;11.20;2.03;;;;;;;;;;5025480;28;20051;-81
2022/10/09 09:19:31;;;;;;;6.05;1.60;;;;;;;;;;5027180;28;20157;-81
2022/10/09 09:21:58;;;;;;;8.60;1.85;;;;;;;;;;5027525;28;20056;-80
2022/10/09 09:24:39;;;;;;;9.25;1.70;;;;;;;;;;5031901;28;20057;-79
2022/10/09 09:27:13;;;;;;;6.85;1.63;;;;;;;;;;5013664;28;20059;-82
2022/10/09 09:29:43;;;;;;;7.28;1.42;;;;;;;;;;5030277;28;20069;-82
2022/10/09 09:32:14;;;;;;;8.45;1.23;;;;;;;;;;5031147;28;20049;-81
2022/10/09 09:34:41;;;;;;;19.48;1.65;;;;;;;;;;5030354;28;20053;-82
2022/10/09 09:37:11;;;;;;;6.47;1.50;;;;;;;;;;5030111;28;20045;-81
2022/10/09 09:39:37;;;;;;;6.32;1.27;;;;;;;;;;5031643;28;20060;-81
2022/10/09 09:42:23;;;;;;;8.77;1.45;;;;;;;;;;5030027;28;20061;-81
2022/10/09 09:44:55;;;;;;;8.07;1.83;;;;;;;;;;5030227;28;20362;-81
2022/10/09 09:47:31;;;;;;;7.63;1.55;;;;;;;;;;5012726;28;20045;-78
2022/10/09 09:49:59;;;;;;;8.55;1.70;;;;;;;;;;5030665;28;20046;-81
2022/10/09 09:52:28;;;;;;;7.07;1.60;;;;;;;;;;5030986;28;20053;-80
2022/10/09 09:54:55;;;;;;;8.85;1.67;;;;;;;;;;5030631;28;20102;-83
2022/10/09 09:57:33;;;;;;;5.55;1.30;;;;;;;;;;5030357;28;20050;-82
2022/10/09 10:00:06;;;;;;;5.78;1.50;;;;;;;;;;5012021;28;20113;-82
2022/10/09 10:02:33;;;;;;;8.60;1.67;;;;;;;;;;5011564;28;20054;-81
2022/10/09 10:05:00;;;;;;;8.88;1.92;;;;;;;;;;5010788;28;20166;-81
2022/10/09 10:07:27;;;;;;;5.38;1.38;;;;;;;;;;5010938;28;20052;-81
2022/10/09 10:10:20;;;;;;;6.15;1.30;;;;;;;;;;5011720;28;20048;-81
2022/10/09 10:12:50;;;;;;;4.53;1.35;;;;;;;;;;5011250;28;20045;-81
2022/10/09 10:15:19;;;;;;;4.65;1.25;;;;;;;;;;5011563;28;20396;-82
2022/10/09 10:17:47;;;;;;;2.60;0.98;;;;;;;;;;5010198;28;20057;-78
2022/10/09 10:20:14;;;;;;;5.03;1.40;;;;;;;;;;5009066;28;20061;-81
2022/10/09 10:22:45;;;;;;;5.40;1.38;;;;;;;;;;5010765;28;20054;-81
2022/10/09 10:25:14;;;;;;;6.75;1.27;;;;;;;;;;5010295;28;20057;-80
2022/10/09 10:27:42;;;;;;;8.35;1.25;;;;;;;;;;5010220;28;20065;-79
2022/10/09 10:30:10;;;;;;;4.82;1.23;;;;;;;;;;5009869;28;20056;-79
2022/10/09 10:32:48;;;;;;;5.90;1.40;;;;;;;;;;5009392;28;20056;-78
2022/10/09 10:35:16;;;;;;;4.20;1.13;;;;;;;;;;5009734;28;20050;-79
2022/10/09 10:37:55;;;;;;;5.45;1.17;;;;;;;;;;5009312;28;20050;-77
2022/10/09 10:40:25;;;;;;;3.55;1.20;;;;;;;;;;4996954;28;20041;-80
2022/10/09 10:43:09;;;;;;;6.38;1.27;;;;;;;;;;4999587;28;20034;-81
2022/10/09 10:45:39;;;;;;;4.95;1.25;;;;;;;;;;5032430;28;20060;-82
2022/10/09 10:48:14;;;;;;;2.92;0.80;;;;;;;;;;5021197;28;20050;-82
2022/10/09 10:50:45;;;;;;;8.50;1.10;;;;;;;;;;5010095;28;20065;-83
2022/10/09 10:53:24;;;;;;;3.35;0.90;;;;;;;;;;5009964;28;20058;-82
2022/10/09 10:56:04;;;;;;;4.10;1.00;;;;;;;;;;5013797;28;20053;-81
2022/10/09 10:58:41;;;;;;;6.90;1.10;;;;;;;;;;5028549;28;20052;-81
2022/10/09 11:01:23;;;;;;;4.45;1.13;;;;;;;;;;5052627;28;20057;-82
2022/10/09 11:04:08;;;;;;;5.45;1.00;;;;;;;;;;5052612;28;20059;-80
2022/10/09 11:07:01;;;;;;;4.80;0.90;;;;;;;;;;5052236;28;20493;-82
2022/10/09 11:09:40;;;;;;;7.78;1.27;;;;;;;;;;5047953;28;20294;-83
2022/10/09 11:12:11;;;;;;;5.85;1.17;;;;;;;;;;5053903;28;20063;-80
2022/10/09 11:14:56;;;;;;;5.68;1.55;;;;;;;;;;5052770;28;20075;-82
2022/10/09 11:17:28;;;;;;;3.08;1.15;;;;;;;;;;5052823;28;20045;-82
2022/10/09 11:20:07;;;;;;;6.45;1.33;;;;;;;;;;5052183;28;20052;-82
2022/10/09 11:22:33;;;;;;;4.63;1.48;;;;;;;;;;5034996;28;20068;-82
2022/10/09 11:25:00;;;;;;;4.30;1.20;;;;;;;;;;5052798;28;20092;-83
2022/10/09 11:27:32;;;;;;;5.32;1.38;;;;;;;;;;5052347;28;20421;-81
2022/10/09 11:30:01;;;;;;;4.13;1.15;;;;;;;;;;5052559;28;20485;-81
2022/10/09 11:32:38;;;;;;;5.55;1.25;;;;;;;;;;5052519;28;20079;-82
2022/10/09 11:35:26;;;;;;;4.93;1.20;;;;;;;;;;5052391;28;20517;-82
2022/10/09 11:38:00;;;;;;;4.00;1.27;;;;;;;;;;4969736;28;20064;-81
2022/10/09 11:40:35;;;;;;;5.60;1.15;;;;;;;;;;5028729;28;20046;-80
2022/10/09 11:43:01;;;;;;;4.90;1.10;;;;;;;;;;5028633;28;20053;-81
2022/10/09 11:45:46;;;;;;;5.30;1.38;;;;;;;;;;5031805;28;20045;-82
2022/10/09 11:48:15;;;;;;;4.57;1.30;;;;;;;;;;5033770;28;20443;-82
2022/10/09 11:50:54;;;;;;;6.07;1.00;;;;;;;;;;5031675;28;20455;-82
2022/10/09 11:53:22;;;;;;;4.88;1.27;;;;;;;;;;5029774;28;20480;-79
2022/10/09 11:56:00;;;;;;;5.20;1.00;;;;;;;;;;5032988;28;20049;-82
2022/10/09 11:58:26;;;;;;;3.80;1.17;;;;;;;;;;5039077;28;20044;-83
2022/10/09 12:00:54;;;;;;;4.43;1.15;;;;;;;;;;5051591;28;20064;-81
2022/10/09 12:03:34;;;;;;;3.40;1.30;;;;;;;;;;5051344;28;20068;-82
2022/10/09 12:06:11;;;;;;;4.43;1.20;;;;;;;;;;5052125;28;20049;-80
2022/10/09 12:08:39;;;;;;;3.70;1.10;;;;;;;;;;5051368;28;20045;-82
2022/10/09 12:11:08;;;;;;;4.03;1.20;;;;;;;;;;5051827;28;20041;-80
2022/10/09 12:13:37;;;;;;;2.10;0.90;;;;;;;;;;5052105;28;20056;-80
2022/10/09 12:16:09;;;;;;;4.55;1.20;;;;;;;;;;5035497;28;20067;-80
2022/10/09 12:18:37;;;;;;;3.08;0.90;;;;;;;;;;5055158;28;20446;-82
2022/10/09 12:21:06;;;;;;;5.22;1.20;;;;;;;;;;5055929;28;20139;-78
2022/10/09 12:23:34;;;;;;;3.17;1.00;;;;;;;;;;5037174;28;20417;-80
2022/10/09 12:26:02;;;;;;;3.85;1.23;;;;;;;;;;5053604;28;20417;-81
2022/10/09 12:28:34;;;;;;;6.35;1.88;;;;;;;;;;5036224;28;20132;-82
2022/10/09 12:31:02;;;;;;;5.30;1.02;;;;;;;;;;5051967;28;20498;-82
2022/10/09 12:33:42;;;;;;;4.28;1.10;;;;;;;;;;5035188;28;20098;-79
2022/10/09 12:36:20;;;;;;;2.28;0.90;;;;;;;;;;5054395;28;20151;-80
2022/10/09 12:38:47;;;;;;;5.03;1.33;;;;;;;;;;5053159;28;20055;-82
2022/10/09 12:41:20;;;;;;;4.72;1.02;;;;;;;;;;5051273;28;20159;-81
2022/10/09 12:43:48;;;;;;;2.80;1.00;;;;;;;;;;5036337;28;20549;-81
2022/10/09 12:46:24;;;;;;;4.00;1.10;;;;;;;;;;5058077;28;20049;-82
2022/10/09 12:48:50;;;;;;;3.97;1.35;;;;;;;;;;5062713;28;20307;-79
2022/10/09 12:51:22;;;;;;;5.20;1.25;;;;;;;;;;5062469;28;20048;-81
2022/10/09 12:53:50;;;;;;;6.25;1.40;;;;;;;;;;5051467;28;20044;-81
2022/10/09 12:56:30;;;;;;;2.90;1.05;;;;;;;;;;5050960;28;20136;-82
2022/10/09 12:58:58;;;;;;;4.05;1.05;;;;;;;;;;5040501;28;20140;-82
2022/10/09 13:01:25;;;;;;;5.00;1.20;;;;;;;;;;5030698;28;20050;-81
2022/10/09 13:03:59;;;;;;;3.35;1.10;;;;;;;;;;5031796;28;20551;-82
2022/10/09 13:06:27;;;;;;;2.30;1.00;;;;;;;;;;5031602;28;20051;-81
2022/10/09 13:08:58;;;;;;;3.97;1.15;;;;;;;;;;5030448;28;20060;-80
2022/10/09 13:11:33;;;;;;;5.13;1.38;;;;;;;;;;5023508;28;20061;-81
2022/10/09 13:14:00;;;;;;;6.68;1.23;;;;;;;;;;5019608;28;20506;-80
2022/10/09 13:16:37;;;;;;;6.25;1.23;;;;;;;;;;5034456;28;20048;-81
2022/10/09 13:19:17;;;;;;;4.53;1.13;;;;;;;;;;5026475;28;20049;-80
2022/10/09 13:21:44;;;;;;;2.08;1.10;;;;;;;;;;5037383;28;20049;-80
2022/10/09 13:24:12;;;;;;;3.08;1.05;;;;;;;;;;5035090;28;20053;-78
2022/10/09 13:26:39;;;;;;;3.90;1.00;;;;;;;;;;5009987;28;20057;-79
2022/10/09 13:29:06;;;;;;;3.28;1.02;;;;;;;;;;5009029;28;20079;-81
2022/10/09 13:31:35;;;;;;;5.63;1.08;;;;;;;;;;5025953;28;20057;-81
2022/10/09 13:34:12;;;;;;;2.50;0.85;;;;;;;;;;5009314;28;20053;-82
2022/10/09 13:36:39;;;;;;;4.40;0.90;;;;;;;;;;5027320;28;20075;-81
2022/10/09 13:39:05;;;;;;;4.00;1.23;;;;;;;;;;5009193;28;20454;-81
2022/10/09 13:41:32;;;;;;;3.95;1.48;;;;;;;;;;5033073;28;20524;-80
2022/10/09 13:43:58;;;;;;;3.97;1.30;;;;;;;;;;5026741;28;20045;-82
2022/10/09 13:46:25;;;;;;;3.83;0.88;;;;;;;;;;5009932;28;20129;-78
2022/10/09 13:48:51;;;;;;;4.50;1.20;;;;;;;;;;5025532;28;20049;-78
2022/10/09 13:51:18;;;;;;;4.05;0.93;;;;;;;;;;5008376;28;20061;-81
2022/10/09 13:53:44;;;;;;;5.70;1.10;;;;;;;;;;5027069;28;20068;-80
2022/10/09 13:56:10;;;;;;;5.22;1.10;;;;;;;;;;5025586;28;20056;-80
2022/10/09 13:58:37;;;;;;;5.30;1.05;;;;;;;;;;5035123;28;20053;-81
2022/10/09 14:01:03;;;;;;;4.03;1.00;;;;;;;;;;5043308;28;20070;-80
2022/10/09 14:03:30;;;;;;;4.93;1.23;;;;;;;;;;5026190;28;20053;-81
2022/10/09 14:06:01;;;;;;;6.82;1.10;;;;;;;;;;5027922;28;20049;-78
2022/10/09 14:08:28;;;;;;;3.78;1.10;;;;;;;;;;5047757;28;20093;-80
2022/10/09 14:10:55;;;;;;;2.83;0.90;;;;;;;;;;5049032;28;20096;-82
2022/10/09 14:13:21;;;;;;;3.58;0.95;;;;;;;;;;5045291;28;20501;-81
2022/10/09 14:15:47;;;;;;;3.60;1.15;;;;;;;;;;5033911;28;20540;-80
2022/10/09 14:18:14;;;;;;;3.05;0.90;;;;;;;;;;5008248;28;20053;-82
2022/10/09 14:20:40;;;;;;;3.05;0.85;;;;;;;;;;5017309;28;20537;-81
2022/10/09 14:23:08;;;;;;;4.28;1.08;;;;;;;;;;5028153;28;20050;-79
2022/10/09 14:25:34;;;;;;;3.78;0.85;;;;;;;;;;5030110;28;20539;-78
2022/10/09 14:28:00;;;;;;;4.80;1.60;;;;;;;;;;5033100;28;20518;-78
2022/10/09 14:30:27;;;;;;;4.82;0.85;;;;;;;;;;5034380;28;20669;-79
2022/10/09 14:32:54;;;;;;;4.35;0.90;;;;;;;;;;5033360;28;20132;-79
2022/10/09 14:35:20;;;;;;;10.13;1.58;;;;;;;;;;5033811;28;20136;-77
2022/10/09 14:37:47;;;;;;;7.75;1.13;;;;;;;;;;5050931;28;20098;-79
2022/10/09 14:40:14;;;;;;;5.70;1.00;;;;;;;;;;5033683;28;20429;-80
2022/10/09 14:42:40;;;;;;;4.18;1.17;;;;;;;;;;5033615;28;20083;-78
2022/10/09 14:45:08;;;;;;;2.65;0.90;;;;;;;;;;5032352;28;20076;-79